Time;durP1;ratioP1;P1;durP2;ratioP2;P2;SDS_P1;SDS_P2;PMS_P1;PMS_P2;Temp;Humidity;BMP_temperature;BMP_pressure;BME280_temperature;BME280_humidity;BME280_pressure;Samples;Min_cycle;Max_cycle;Signal;HPM_P1;HPM_P2
2022/09/13 00:01:00;;;;;;;5.30;2.50;;;;;;;16.63;67.04;100306.13;107812;1277;63365;-81
2022/09/13 00:03:27;;;;;;;3.50;2.40;;;;;;;16.64;66.88;100313.29;107759;1280;61305;-81
2022/09/13 00:05:54;;;;;;;4.50;2.20;;;;;;;16.63;66.93;100307.15;107816;1277;76843;-82
2022/09/13 00:08:21;;;;;;;3.90;2.20;;;;;;;16.63;67.00;100301.67;107882;1276;71762;-82
2022/09/13 00:10:48;;;;;;;4.20;2.50;;;;;;;16.59;66.96;100298.46;108053;1277;74992;-80
2022/09/13 00:13:16;;;;;;;4.10;2.60;;;;;;;16.59;66.91;100299.95;107858;1277;64009;-80
2022/09/13 00:15:45;;;;;;;4.00;2.30;;;;;;;16.58;66.99;100295.38;108101;1277;61035;-80
2022/09/13 00:18:13;;;;;;;3.30;2.30;;;;;;;16.56;67.10;100289.68;107813;1277;74607;-81
2022/09/13 00:20:39;;;;;;;3.80;2.60;;;;;;;16.54;67.19;100288.56;107878;1277;71978;-81
2022/09/13 00:23:06;;;;;;;4.00;2.60;;;;;;;16.53;67.17;100285.69;108064;1277;72849;-81
2022/09/13 00:25:34;;;;;;;3.50;2.40;;;;;;;16.51;67.37;100286.61;108059;1277;63778;-81
2022/09/13 00:28:01;;;;;;;4.20;2.60;;;;;;;16.50;67.36;100287.86;107889;1277;60365;-81
2022/09/13 00:30:28;;;;;;;4.20;2.70;;;;;;;16.49;67.44;100284.77;107873;1277;74888;-81
2022/09/13 00:32:55;;;;;;;4.20;2.50;;;;;;;16.48;67.50;100287.59;108054;1277;72707;-81
2022/09/13 00:35:22;;;;;;;4.10;2.40;;;;;;;16.47;67.50;100288.60;108034;1276;73999;-80
2022/09/13 00:37:49;;;;;;;3.50;2.50;;;;;;;16.47;67.59;100285.89;107755;1277;62705;-81
2022/09/13 00:40:16;;;;;;;4.60;2.70;;;;;;;16.47;67.57;100284.41;107919;1277;61650;-81
2022/09/13 00:42:42;;;;;;;3.50;2.60;;;;;;;16.47;67.56;100285.44;107764;1277;75253;-81
2022/09/13 00:45:09;;;;;;;4.00;2.50;;;;;;;16.48;67.54;100279.35;108022;1277;59117;-81
2022/09/13 00:47:43;;;;;;;4.30;2.70;;;;;;;16.49;67.55;100271.89;107736;1278;74253;-81
2022/09/13 00:50:18;;;;;;;4.00;2.70;;;;;;;16.48;67.54;100268.04;107821;1277;63288;-81
2022/09/13 00:52:50;;;;;;;3.80;2.70;;;;;;;16.46;67.71;100263.54;107810;1277;61715;-81
2022/09/13 00:55:26;;;;;;;5.90;2.50;;;;;;;16.46;67.81;100258.17;107989;1277;73423;-81
2022/09/13 00:57:58;;;;;;;4.80;2.50;;;;;;;16.45;67.89;100254.31;107928;1277;72438;-81
2022/09/13 01:00:25;;;;;;;3.70;2.50;;;;;;;16.44;68.04;100250.95;107979;1277;73161;-81
2022/09/13 01:02:57;;;;;;;3.90;2.40;;;;;;;16.43;68.07;100249.48;107988;1277;62466;-81
2022/09/13 01:05:29;;;;;;;4.00;2.50;;;;;;;16.42;68.21;100245.61;108022;1276;60764;-82
2022/09/13 01:07:57;;;;;;;4.40;2.80;;;;;;;16.42;68.31;100233.88;108079;1276;75129;-81
2022/09/13 01:10:25;;;;;;;3.70;2.70;;;;;;;16.44;68.20;100235.64;107784;1276;70450;-81
2022/09/13 01:13:10;;;;;;;6.00;2.70;;;;;;;16.44;68.28;100234.52;107774;1277;73675;-81
2022/09/13 01:15:36;;;;;;;5.20;2.60;;;;;;;16.43;68.32;100229.34;108078;1276;62557;-82
2022/09/13 01:18:04;;;;;;;4.20;2.70;;;;;;;16.42;68.54;100227.62;108173;1277;61556;-82
2022/09/13 01:20:59;;;;;;;4.40;2.80;;;;;;;16.43;68.41;100223.20;107759;1277;75113;-81
2022/09/13 01:23:38;;;;;;;4.20;2.60;;;;;;;16.45;68.43;100217.52;108014;1277;71368;-82
2022/09/13 01:26:35;;;;;;;4.90;2.70;;;;;;;16.46;68.39;100209.58;108096;1276;74670;-82
2022/09/13 01:29:43;;;;;;;4.20;2.80;;;;;;;16.50;68.50;100205.98;108036;1277;63858;-82
2022/09/13 01:32:20;;;;;;;4.70;2.80;;;;;;;16.53;68.44;100198.98;108117;1276;60726;-82
2022/09/13 01:35:17;;;;;;;4.50;3.00;;;;;;;16.55;68.53;100196.64;108113;1276;75725;-82
2022/09/13 01:38:18;;;;;;;5.40;2.80;;;;;;;16.59;68.54;100191.77;108223;1277;73042;-82
2022/09/13 01:41:31;;;;;;;5.20;3.40;;;;;;;16.64;68.40;100187.88;108116;1275;72652;-82
2022/09/13 01:44:16;;;;;;;4.40;2.80;;;;;;;16.68;68.27;100185.21;107980;1277;62122;-82
2022/09/13 01:46:48;;;;;;;4.90;2.80;;;;;;;16.73;68.28;100181.11;108112;1276;62391;-81
2022/09/13 01:49:31;;;;;;;4.20;2.80;;;;;;;16.77;68.22;100184.48;108046;1277;76029;-80
2022/09/13 01:52:03;;;;;;;3.80;2.90;;;;;;;16.80;68.21;100182.59;108126;1276;71535;-82
2022/09/13 01:54:56;;;;;;;3.80;2.70;;;;;;;16.84;68.09;100178.09;108130;1276;73392;-82
2022/09/13 01:57:34;;;;;;;5.70;2.90;;;;;;;16.88;68.11;100176.42;108106;1276;62473;-81
2022/09/13 02:00:13;;;;;;;4.80;3.00;;;;;;;16.92;68.05;100177.10;107930;1276;61767;-81
2022/09/13 02:02:56;;;;;;;3.90;2.60;;;;;;;16.96;67.87;100174.91;107935;1277;74977;-81
2022/09/13 02:05:32;;;;;;;5.20;3.10;;;;;;;17.00;67.72;100174.23;108152;1276;72586;-81
2022/09/13 02:08:14;;;;;;;5.50;3.20;;;;;;;17.04;67.62;100174.79;107874;1277;72805;-82
2022/09/13 02:10:46;;;;;;;4.00;2.80;;;;;;;17.07;67.67;100171.88;108055;1275;61128;-81
2022/09/13 02:13:19;;;;;;;4.80;3.10;;;;;;;17.12;67.62;100172.68;108102;1276;61439;-81
2022/09/13 02:15:56;;;;;;;4.80;3.00;;;;;;;17.15;67.48;100171.19;108104;1276;76047;-82
2022/09/13 02:18:34;;;;;;;3.90;2.80;;;;;;;17.19;67.36;100167.58;108057;1277;73667;-82
2022/09/13 02:21:11;;;;;;;5.50;3.10;;;;;;;17.22;67.31;100169.70;108088;1277;72438;-82
2022/09/13 02:23:44;;;;;;;4.80;2.90;;;;;;;17.25;67.22;100174.23;107966;1276;63250;-82
2022/09/13 02:26:14;;;;;;;5.10;3.30;;;;;;;17.28;67.19;100174.67;108122;1277;62270;-82
2022/09/13 02:28:46;;;;;;;4.00;2.90;;;;;;;17.30;67.20;100174.95;108102;1277;74893;-82
2022/09/13 02:31:17;;;;;;;3.90;2.70;;;;;;;17.32;67.29;100178.05;108401;1277;71879;-82
2022/09/13 02:33:52;;;;;;;4.00;2.80;;;;;;;17.34;67.25;100181.84;108326;1276;73081;-83
2022/09/13 02:36:26;;;;;;;3.80;2.90;;;;;;;17.36;67.17;100179.10;108031;1277;63308;-82
2022/09/13 02:38:58;;;;;;;4.30;3.00;;;;;;;17.38;67.31;100184.15;108032;1277;60039;-82
2022/09/13 02:41:39;;;;;;;4.00;2.80;;;;;;;17.39;67.23;100186.29;107799;1277;75831;-82
2022/09/13 02:44:13;;;;;;;4.60;3.20;;;;;;;17.41;67.20;100187.21;107991;1277;69400;-82
2022/09/13 02:46:53;;;;;;;4.90;3.10;;;;;;;17.44;67.42;100192.84;108049;1276;72957;-82
2022/09/13 02:49:30;;;;;;;5.30;3.30;;;;;;;17.44;68.02;100197.14;108100;1275;62150;-82
2022/09/13 02:51:57;;;;;;;4.30;3.10;;;;;;;17.43;68.21;100206.27;108016;1277;60716;-82
2022/09/13 02:54:30;;;;;;;4.80;3.20;;;;;;;17.40;68.70;100208.10;107930;1277;74974;-83
2022/09/13 02:56:57;;;;;;;5.20;3.30;;;;;;;17.37;69.30;100210.86;108063;1277;72610;-82
2022/09/13 02:59:24;;;;;;;5.70;3.30;;;;;;;17.32;70.18;100212.73;108138;1276;72994;-82
2022/09/13 03:02:08;;;;;;;5.10;3.60;;;;;;;17.23;71.66;100228.33;107904;1275;62299;-80
2022/09/13 03:04:35;;;;;;;6.10;3.80;;;;;;;17.09;73.51;100221.99;108052;1276;60330;-78
2022/09/13 03:07:04;;;;;;;5.60;3.50;;;;;;;16.94;74.33;100212.20;107916;1276;75574;-78
2022/09/13 03:09:32;;;;;;;5.90;4.10;;;;;;;16.77;75.23;100210.02;108058;1276;72579;-78
2022/09/13 03:12:21;;;;;;;5.70;3.60;;;;;;;16.63;75.41;100210.09;107742;1277;71736;-78
2022/09/13 03:15:18;;;;;;;5.40;3.90;;;;;;;16.53;76.16;100207.50;108115;1277;61133;-77
2022/09/13 03:17:59;;;;;;;6.00;4.20;;;;;;;16.41;77.51;100218.48;108152;1276;61845;-77
2022/09/13 03:20:44;;;;;;;7.00;4.40;;;;;;;16.30;78.86;100211.54;107933;1277;74855;-77
2022/09/13 03:23:36;;;;;;;7.10;4.40;;;;;;;16.22;79.23;100203.06;108006;1277;71661;-77
2022/09/13 03:26:31;;;;;;;6.10;4.30;;;;;;;16.15;79.90;100191.20;108154;1276;71766;-77
2022/09/13 03:29:10;;;;;;;7.30;4.60;;;;;;;16.07;80.85;100194.55;108073;1276;61958;-76
2022/09/13 03:31:53;;;;;;;6.10;4.50;;;;;;;16.01;81.16;100192.56;108097;1277;60674;-77
2022/09/13 03:34:50;;;;;;;8.10;4.90;;;;;;;15.96;81.93;100187.92;108070;1277;74664;-77
2022/09/13 03:37:27;;;;;;;8.20;4.80;;;;;;;15.92;82.30;100183.36;108047;1277;71364;-77
2022/09/13 03:39:59;;;;;;;7.00;4.50;;;;;;;15.87;83.03;100180.78;108170;1276;74361;-77
2022/09/13 03:42:59;;;;;;;7.40;5.00;;;;;;;15.82;83.78;100179.02;108208;1276;63306;-78
2022/09/13 03:45:31;;;;;;;8.40;5.00;;;;;;;15.78;84.50;100177.59;107834;1277;60468;-79
2022/09/13 03:47:58;;;;;;;7.50;4.80;;;;;;;15.75;84.65;100167.30;107981;1277;74202;-78
2022/09/13 03:50:26;;;;;;;8.50;5.10;;;;;;;15.74;85.24;100171.30;108184;1275;70995;-78
2022/09/13 03:52:59;;;;;;;8.10;5.40;;;;;;;15.73;85.62;100166.37;107961;1277;73083;-79
2022/09/13 03:55:27;;;;;;;6.80;5.40;;;;;;;15.72;85.97;100171.59;107996;1277;62139;-79
2022/09/13 03:57:54;;;;;;;7.40;5.00;;;;;;;15.73;86.16;100170.28;108012;1276;61854;-78
2022/09/13 04:00:21;;;;;;;8.30;5.30;;;;;;;15.73;86.22;100169.37;108060;1277;78174;-78
2022/09/13 04:02:49;;;;;;;7.50;5.10;;;;;;;15.73;86.45;100168.14;107925;1277;72065;-78
2022/09/13 04:05:16;;;;;;;8.10;5.10;;;;;;;15.73;86.27;100167.68;108115;1276;73892;-79
2022/09/13 04:07:43;;;;;;;7.90;4.90;;;;;;;15.76;86.33;100155.60;108165;1275;62292;-79
2022/09/13 04:10:10;;;;;;;7.40;5.50;;;;;;;15.76;86.68;100149.56;108179;1274;60296;-79
2022/09/13 04:12:40;;;;;;;7.10;4.80;;;;;;;15.78;86.37;100155.61;108027;1276;76074;-79
2022/09/13 04:15:07;;;;;;;6.00;4.80;;;;;;;15.79;86.44;100151.38;107840;1277;71561;-79
2022/09/13 04:17:35;;;;;;;7.30;4.90;;;;;;;15.78;86.43;100155.36;107834;1277;73536;-79
2022/09/13 04:20:02;;;;;;;6.80;5.20;;;;;;;15.79;86.38;100148.28;107892;1277;62350;-79
2022/09/13 04:22:28;;;;;;;5.90;4.60;;;;;;;15.81;86.75;100140.41;107883;1277;60335;-79
2022/09/13 04:24:55;;;;;;;6.50;4.90;;;;;;;15.82;86.46;100144.67;108178;1276;59573;-79
2022/09/13 04:27:27;;;;;;;7.80;5.00;;;;;;;15.84;86.49;100152.42;108164;1276;71350;-79
2022/09/13 04:29:54;;;;;;;7.20;5.00;;;;;;;15.87;86.34;100151.94;108040;1277;74361;-79
2022/09/13 04:32:21;;;;;;;8.70;5.30;;;;;;;15.89;86.17;100148.56;108074;1274;63262;-79
2022/09/13 04:34:48;;;;;;;7.00;4.90;;;;;;;15.90;86.28;100152.18;108035;1277;60509;-79
2022/09/13 04:37:15;;;;;;;6.60;5.00;;;;;;;15.93;86.33;100157.10;108052;1277;74800;-80
2022/09/13 04:39:42;;;;;;;8.20;5.20;;;;;;;15.95;86.46;100158.02;108184;1277;71384;-80
2022/09/13 04:42:10;;;;;;;6.90;5.30;;;;;;;15.98;86.44;100155.34;107859;1277;72900;-80
2022/09/13 04:44:37;;;;;;;8.90;5.70;;;;;;;16.02;86.41;100151.56;108179;1277;62230;-80
2022/09/13 04:47:05;;;;;;;18.70;14.50;;;;;;;16.06;86.32;100147.42;108167;1276;61136;-79
2022/09/13 04:49:32;;;;;;;8.10;5.20;;;;;;;16.07;86.39;100146.68;108264;1277;74789;-80
2022/09/13 04:51:59;;;;;;;7.40;5.10;;;;;;;16.10;86.37;100144.39;107970;1277;71317;-79
2022/09/13 04:54:26;;;;;;;6.40;4.70;;;;;;;16.10;86.03;100145.37;107889;1277;73077;-79
2022/09/13 04:56:54;;;;;;;7.10;4.90;;;;;;;16.11;85.91;100149.36;108039;1277;62280;-79
2022/09/13 04:59:20;;;;;;;7.20;5.00;;;;;;;16.12;85.78;100151.72;108225;1275;59966;-80
2022/09/13 05:01:47;;;;;;;6.80;4.70;;;;;;;16.12;85.84;100150.45;108052;1276;73709;-80
2022/09/13 05:04:14;;;;;;;7.30;5.00;;;;;;;16.13;85.77;100151.23;108069;1277;71177;-80
2022/09/13 05:06:41;;;;;;;5.80;4.90;;;;;;;16.15;85.63;100149.52;108067;1277;72907;-79
2022/09/13 05:09:12;;;;;;;6.80;5.20;;;;;;;16.17;85.44;100150.31;108081;1277;62025;-80
2022/09/13 05:11:39;;;;;;;8.00;4.80;;;;;;;16.20;85.40;100157.18;108245;1274;59823;-80
2022/09/13 05:14:09;;;;;;;6.50;5.00;;;;;;;16.24;85.63;100162.29;108194;1277;75954;-80
2022/09/13 05:16:36;;;;;;;7.80;5.40;;;;;;;16.27;85.26;100159.15;108039;1277;71393;-80
2022/09/13 05:19:03;;;;;;;7.40;5.20;;;;;;;16.28;85.04;100160.30;107989;1275;72880;-80
2022/09/13 05:21:29;;;;;;;7.20;4.80;;;;;;;16.30;84.96;100163.94;108142;1275;61124;-80
2022/09/13 05:23:57;;;;;;;6.30;5.00;;;;;;;16.31;84.68;100166.23;108045;1276;61267;-80
2022/09/13 05:26:26;;;;;;;6.10;4.80;;;;;;;16.31;84.55;100166.88;108048;1275;74715;-80
2022/09/13 05:28:53;;;;;;;6.90;4.90;;;;;;;16.34;84.49;100164.42;108030;1277;72447;-80
2022/09/13 05:31:30;;;;;;;7.60;5.10;;;;;;;16.38;84.52;100166.02;108083;1277;74028;-80
2022/09/13 05:34:02;;;;;;;7.00;4.50;;;;;;;16.41;84.42;100160.17;107897;1276;61308;-80
2022/09/13 05:36:29;;;;;;;8.30;5.00;;;;;;;16.44;84.43;100165.36;108143;1277;59933;-80
2022/09/13 05:38:56;;;;;;;7.30;4.50;;;;;;;16.48;84.15;100165.67;108224;1276;76220;-80
2022/09/13 05:41:44;;;;;;;6.10;4.10;;;;;;;16.51;83.86;100165.75;108064;1275;74044;-80
2022/09/13 05:44:11;;;;;;;6.20;4.80;;;;;;;16.53;83.71;100164.79;108007;1277;72760;-80
2022/09/13 05:46:41;;;;;;;8.20;4.90;;;;;;;16.57;83.63;100163.91;108243;1276;62230;-80
2022/09/13 05:49:07;;;;;;;6.60;4.90;;;;;;;16.61;83.74;100166.91;108070;1277;61879;-80
2022/09/13 05:51:35;;;;;;;7.00;5.30;;;;;;;16.63;83.61;100165.05;108095;1277;74949;-81
2022/09/13 05:54:02;;;;;;;6.30;4.80;;;;;;;16.65;83.49;100167.95;107905;1277;71049;-80
2022/09/13 05:56:29;;;;;;;6.30;4.90;;;;;;;16.66;83.49;100167.64;108033;1275;73101;-80
2022/09/13 05:58:57;;;;;;;9.00;5.00;;;;;;;16.66;83.49;100163.52;108081;1277;64179;-80
2022/09/13 06:01:26;;;;;;;10.70;5.70;;;;;;;16.66;83.36;100160.56;107953;1277;62491;-80
2022/09/13 06:03:55;;;;;;;11.20;5.50;;;;;;;16.67;83.20;100160.42;108181;1275;74046;-80
2022/09/13 06:06:23;;;;;;;6.60;4.90;;;;;;;16.69;83.07;100158.67;108382;1274;71112;-80
2022/09/13 06:08:53;;;;;;;5.70;4.60;;;;;;;16.73;82.97;100156.14;108304;1275;72776;-79
2022/09/13 06:11:21;;;;;;;8.10;5.70;;;;;;;16.76;82.71;100157.17;108316;1277;63005;-79
2022/09/13 06:13:48;;;;;;;16.80;12.40;;;;;;;16.80;82.86;100159.06;108018;1277;60332;-79
2022/09/13 06:16:16;;;;;;;9.10;5.20;;;;;;;16.83;82.55;100157.02;108181;1277;73170;-79
2022/09/13 06:18:43;;;;;;;8.20;5.50;;;;;;;16.86;82.41;100163.30;108064;1276;73171;-79
2022/09/13 06:21:16;;;;;;;8.20;5.10;;;;;;;16.91;82.37;100156.56;108312;1275;74252;-79
2022/09/13 06:23:49;;;;;;;6.50;4.80;;;;;;;16.97;82.12;100153.33;108168;1277;61754;-79
2022/09/13 06:26:21;;;;;;;11.00;5.90;;;;;;;17.01;81.85;100153.96;108074;1276;61003;-79
2022/09/13 06:28:52;;;;;;;21.40;14.80;;;;;;;17.06;81.42;100153.02;108175;1276;74215;-79
2022/09/13 06:31:21;;;;;;;11.50;7.80;;;;;;;17.10;81.27;100156.62;108189;1277;72417;-79
2022/09/13 06:33:48;;;;;;;9.90;6.50;;;;;;;17.17;81.00;100153.80;106564;1277;1723869;-79
2022/09/13 06:36:17;;;;;;;9.40;5.80;;;;;;;17.21;80.77;100149.85;108132;1276;65010;-79
2022/09/13 06:38:45;;;;;;;13.80;7.50;;;;;;;17.25;80.39;100142.28;107916;1277;60361;-79
2022/09/13 06:41:19;;;;;;;6.10;4.20;;;;;;;17.31;80.35;100128.95;108160;1277;74825;-79
2022/09/13 06:43:46;;;;;;;9.50;6.20;;;;;;;17.38;80.03;100135.81;108367;1275;71146;-80
2022/09/13 06:46:16;;;;;;;14.10;11.30;;;;;;;17.43;79.58;100136.68;108184;1277;73134;-80
2022/09/13 06:48:49;;;;;;;5.80;4.50;;;;;;;17.51;79.23;100140.88;108235;1276;62415;-80
2022/09/13 06:51:19;;;;;;;5.30;4.30;;;;;;;17.57;79.24;100135.48;108067;1278;60403;-80
2022/09/13 06:53:47;;;;;;;14.80;10.00;;;;;;;17.66;78.95;100136.10;108110;1277;76038;-80
2022/09/13 06:56:26;;;;;;;6.20;4.20;;;;;;;17.70;78.22;100140.86;108325;1276;72513;-81
2022/09/13 06:58:58;;;;;;;5.90;4.40;;;;;;;17.74;78.07;100140.77;108050;1275;73870;-81
2022/09/13 07:01:41;;;;;;;12.60;9.50;;;;;;;17.75;78.02;100142.36;108304;1275;62466;-81
2022/09/13 07:04:15;;;;;;;7.20;5.20;;;;;;;17.78;77.62;100144.25;108154;1277;60301;-81
2022/09/13 07:06:44;;;;;;;7.20;4.30;;;;;;;17.81;77.51;100150.77;108288;1277;74777;-83
2022/09/13 07:09:17;;;;;;;10.20;7.30;;;;;;;17.84;77.51;100146.02;108172;1276;71343;-82
2022/09/13 07:11:44;;;;;;;9.80;6.70;;;;;;;17.87;77.30;100147.27;108038;1277;72728;-82
2022/09/13 07:14:14;;;;;;;9.50;7.00;;;;;;;17.91;77.04;100149.45;108106;1277;63288;-81
2022/09/13 07:16:40;;;;;;;11.80;6.80;;;;;;;17.90;76.73;100148.35;108210;1277;61020;-81
2022/09/13 07:19:12;;;;;;;26.80;19.50;;;;;;;17.88;76.32;100148.59;108156;1276;77540;-81
2022/09/13 07:21:39;;;;;;;14.30;10.40;;;;;;;17.88;76.44;100153.84;108392;1275;72060;-81
2022/09/13 07:24:06;;;;;;;25.30;18.40;;;;;;;17.90;76.53;100153.02;108206;1277;59162;-82
2022/09/13 07:26:33;;;;;;;12.20;9.10;;;;;;;17.91;76.24;100152.94;108239;1277;63385;-83
2022/09/13 07:29:03;;;;;;;20.30;14.40;;;;;;;17.96;76.36;100153.39;108280;1277;59606;-82
2022/09/13 07:31:41;;;;;;;9.20;6.50;;;;;;;17.97;75.72;100158.14;108124;1277;73343;-81
2022/09/13 07:34:12;;;;;;;12.90;8.80;;;;;;;17.99;76.06;100163.92;108252;1277;72817;-82
2022/09/13 07:36:39;;;;;;;6.90;5.00;;;;;;;18.01;76.52;100157.91;108189;1277;73042;-82
2022/09/13 07:39:06;;;;;;;5.80;4.00;;;;;;;18.03;76.86;100164.89;108295;1277;62100;-82
2022/09/13 07:41:40;;;;;;;6.10;4.40;;;;;;;18.07;76.95;100160.23;108367;1276;60362;-82
2022/09/13 07:44:09;;;;;;;6.30;4.50;;;;;;;18.11;76.89;100156.83;108290;1277;75235;-82
2022/09/13 07:46:40;;;;;;;5.70;4.40;;;;;;;18.16;77.08;100162.94;108224;1276;72310;-81
2022/09/13 07:49:07;;;;;;;8.10;6.30;;;;;;;18.20;77.06;100162.86;108327;1275;72978;-82
2022/09/13 07:51:36;;;;;;;5.70;4.10;;;;;;;18.27;76.94;100156.59;108209;1276;62500;-81
2022/09/13 07:54:05;;;;;;;7.20;5.90;;;;;;;18.37;76.78;100157.00;108400;1275;59598;-82
2022/09/13 07:56:37;;;;;;;6.10;4.80;;;;;;;18.49;76.62;100159.91;108130;1276;75929;-82
2022/09/13 07:59:09;;;;;;;14.30;9.80;;;;;;;18.59;76.63;100167.08;107981;1277;71201;-82
2022/09/13 08:01:41;;;;;;;6.40;4.00;;;;;;;18.70;76.16;100168.30;108203;1277;72935;-82
2022/09/13 08:04:16;;;;;;;7.70;4.20;;;;;;;18.78;75.86;100171.86;108298;1276;61651;-82
2022/09/13 08:06:43;;;;;;;6.90;3.80;;;;;;;18.83;75.04;100173.66;108232;1277;60575;-82
2022/09/13 08:09:11;;;;;;;4.50;3.80;;;;;;;18.84;74.51;100180.83;108155;1276;76205;-82
2022/09/13 08:11:40;;;;;;;6.30;4.10;;;;;;;18.91;74.95;100179.98;108187;1277;70669;-82
2022/09/13 08:14:11;;;;;;;4.90;3.90;;;;;;;19.04;74.88;100181.94;108120;1277;72941;-82
2022/09/13 08:16:40;;;;;;;6.10;4.30;;;;;;;19.22;74.66;100182.48;108039;1276;63556;-82
2022/09/13 08:19:11;;;;;;;5.60;3.90;;;;;;;19.41;73.86;100180.99;108347;1276;60401;-81
2022/09/13 08:21:39;;;;;;;7.50;5.50;;;;;;;19.52;73.76;100180.95;108302;1277;75238;-81
2022/09/13 08:24:10;;;;;;;6.60;4.10;;;;;;;19.63;73.57;100180.79;108300;1277;72143;-82
2022/09/13 08:26:38;;;;;;;7.10;4.50;;;;;;;19.71;73.18;100188.34;108142;1276;72657;-82
2022/09/13 08:29:05;;;;;;;10.60;5.30;;;;;;;19.78;72.87;100185.77;108186;1277;60973;-82
2022/09/13 08:31:33;;;;;;;17.00;6.90;;;;;;;19.85;73.06;100184.89;108123;1277;60675;-82
2022/09/13 08:34:00;;;;;;;11.70;6.70;;;;;;;19.92;72.28;100193.17;108374;1275;75446;-82
2022/09/13 08:36:27;;;;;;;10.50;5.50;;;;;;;19.94;71.10;100196.09;108186;1277;71576;-82
2022/09/13 08:38:57;;;;;;;6.90;5.00;;;;;;;19.97;71.05;100192.36;108217;1277;73346;-82
2022/09/13 08:41:59;;;;;;;7.70;4.60;;;;;;;19.95;70.28;100194.02;108298;1276;63447;-82
2022/09/13 08:44:46;;;;;;;6.50;4.60;;;;;;;19.99;70.32;100197.23;108342;1276;60690;-82
2022/09/13 08:47:42;;;;;;;6.70;4.40;;;;;;;19.99;69.62;100199.77;108276;1276;76022;-82
2022/09/13 08:50:21;;;;;;;5.90;4.50;;;;;;;19.91;69.39;100192.66;108291;1277;71531;-82
2022/09/13 08:52:55;;;;;;;7.60;5.00;;;;;;;19.82;69.99;100185.81;108179;1276;72869;-82
2022/09/13 08:55:22;;;;;;;20.30;16.70;;;;;;;19.83;70.24;100187.07;108355;1275;62987;-82
2022/09/13 08:58:00;;;;;;;6.60;5.20;;;;;;;19.96;70.85;100177.98;108394;1276;61251;-82
2022/09/13 09:00:50;;;;;;;9.30;6.40;;;;;;;20.06;70.50;100185.15;108102;1277;74750;-82
2022/09/13 09:03:32;;;;;;;8.90;5.20;;;;;;;20.08;70.98;100184.36;108339;1276;70682;-83
2022/09/13 09:06:00;;;;;;;7.00;5.40;;;;;;;20.04;72.07;100186.63;108343;1277;75240;-83
2022/09/13 09:08:38;;;;;;;7.30;5.50;;;;;;;20.06;72.00;100186.86;108257;1277;63342;-83
2022/09/13 09:11:34;;;;;;;9.50;6.30;;;;;;;20.07;72.02;100182.42;108285;1276;61734;-83
2022/09/13 09:14:14;;;;;;;8.60;6.30;;;;;;;20.11;72.28;100182.14;108359;1276;74699;-83
2022/09/13 09:16:56;;;;;;;7.00;6.20;;;;;;;20.14;72.20;100191.66;108396;1275;72419;-83
2022/09/13 09:19:37;;;;;;;8.80;6.20;;;;;;;20.19;72.40;100182.93;108235;1277;74010;-82
2022/09/13 09:22:10;;;;;;;8.50;6.30;;;;;;;20.26;72.46;100186.58;108229;1277;64119;-83
2022/09/13 09:24:39;;;;;;;9.30;6.40;;;;;;;20.31;72.24;100192.99;108149;1278;60329;-83
2022/09/13 09:27:14;;;;;;;8.90;5.90;;;;;;;20.38;71.91;100192.75;108192;1277;74858;-83
2022/09/13 09:29:45;;;;;;;8.00;5.80;;;;;;;20.45;71.29;100192.45;108148;1277;71600;-82
2022/09/13 09:32:20;;;;;;;9.80;5.60;;;;;;;20.58;71.56;100185.00;107935;1279;72503;-82
2022/09/13 09:34:54;;;;;;;10.10;6.90;;;;;;;20.73;70.72;100192.02;108241;1276;62344;-81
2022/09/13 09:37:25;;;;;;;8.50;5.60;;;;;;;20.88;70.21;100186.61;108220;1277;61912;-81
2022/09/13 09:39:57;;;;;;;9.00;6.60;;;;;;;21.13;70.21;100179.38;108339;1276;75993;-81
2022/09/13 09:42:27;;;;;;;11.80;6.00;;;;;;;21.41;69.69;100178.26;108433;1276;72683;-81
2022/09/13 09:45:01;;;;;;;8.70;6.60;;;;;;;21.59;68.04;100176.38;108337;1277;73824;-81
2022/09/13 09:47:37;;;;;;;9.70;6.00;;;;;;;21.73;67.52;100176.69;108224;1277;63657;-82
2022/09/13 09:50:13;;;;;;;8.70;6.60;;;;;;;21.70;65.69;100180.17;108168;1277;60660;-81
2022/09/13 09:52:50;;;;;;;10.60;8.50;;;;;;;21.52;65.80;100180.13;108213;1277;75884;-81
2022/09/13 09:55:20;;;;;;;10.40;7.50;;;;;;;21.38;66.01;100177.90;108385;1277;71395;-82
2022/09/13 09:57:55;;;;;;;9.50;6.70;;;;;;;21.27;66.52;100171.50;108101;1277;72764;-81
2022/09/13 10:00:28;;;;;;;9.00;6.90;;;;;;;21.18;67.33;100169.87;108243;1277;63318;-81
2022/09/13 10:03:03;;;;;;;8.50;6.40;;;;;;;21.09;67.35;100167.43;108228;1277;61522;-81
2022/09/13 10:05:33;;;;;;;11.10;7.20;;;;;;;20.95;68.07;100170.64;108144;1277;74734;-82
2022/09/13 10:08:20;;;;;;;9.90;6.90;;;;;;;20.92;68.68;100173.70;108152;1277;71179;-82
2022/09/13 10:10:59;;;;;;;8.50;6.60;;;;;;;20.87;68.95;100175.91;108294;1277;74016;-81
2022/09/13 10:13:26;;;;;;;10.30;6.80;;;;;;;20.92;69.38;100174.95;108156;1276;62194;-82
2022/09/13 10:16:24;;;;;;;10.80;7.80;;;;;;;20.97;68.90;100174.17;108094;1276;60946;-82
2022/09/13 10:18:51;;;;;;;13.80;10.00;;;;;;;21.01;68.27;100173.67;107960;1277;76276;-81
2022/09/13 10:21:18;;;;;;;12.70;9.00;;;;;;;21.02;68.34;100171.79;108228;1277;72603;-81
2022/09/13 10:23:49;;;;;;;10.30;7.40;;;;;;;21.10;68.73;100173.09;108334;1277;74819;-82
2022/09/13 10:26:19;;;;;;;11.10;7.20;;;;;;;21.22;68.43;100175.98;108078;1277;62150;-82
2022/09/13 10:28:56;;;;;;;8.10;6.10;;;;;;;21.30;67.46;100174.33;108316;1275;60451;-81
2022/09/13 10:31:30;;;;;;;10.70;7.20;;;;;;;21.46;67.40;100170.73;108268;1276;76186;-80
2022/09/13 10:34:00;;;;;;;9.10;6.80;;;;;;;21.68;66.57;100170.39;108098;1277;72191;-82
2022/09/13 10:36:31;;;;;;;8.60;6.00;;;;;;;21.85;66.61;100167.98;107828;1277;73923;-82
2022/09/13 10:39:20;;;;;;;18.30;11.60;;;;;;;21.96;66.26;100169.29;108218;1277;63729;-81
2022/09/13 10:41:52;;;;;;;6.90;5.40;;;;;;;21.99;65.83;100175.24;108037;1277;60745;-82
2022/09/13 10:44:30;;;;;;;8.80;5.70;;;;;;;21.84;66.42;100165.50;108278;1277;76299;-81
2022/09/13 10:47:01;;;;;;;10.90;8.40;;;;;;;21.74;67.22;100169.98;108093;1277;71433;-82
2022/09/13 10:49:47;;;;;;;9.90;7.20;;;;;;;21.75;67.59;100166.42;108174;1275;74036;-82
2022/09/13 10:52:25;;;;;;;8.90;7.50;;;;;;;21.69;68.25;100170.45;107971;1277;62650;-82
2022/09/13 10:54:54;;;;;;;9.60;6.80;;;;;;;21.65;68.93;100172.47;108268;1277;61039;-82
2022/09/13 10:57:33;;;;;;;8.00;6.30;;;;;;;21.58;69.28;100171.24;108147;1277;75162;-82
2022/09/13 11:00:00;;;;;;;9.40;6.70;;;;;;;21.52;69.58;100174.50;108250;1277;71223;-82
2022/09/13 11:02:36;;;;;;;9.20;6.60;;;;;;;21.49;70.05;100173.46;107919;1277;73824;-83
2022/09/13 11:05:19;;;;;;;8.30;6.30;;;;;;;21.42;70.56;100175.09;108286;1277;60761;-82
2022/09/13 11:08:04;;;;;;;8.50;6.80;;;;;;;21.32;70.89;100174.51;108165;1277;60499;-83
2022/09/13 11:10:39;;;;;;;8.10;6.50;;;;;;;21.26;70.95;100175.42;108197;1277;74854;-83
2022/09/13 11:13:34;;;;;;;10.50;7.50;;;;;;;21.24;71.14;100171.80;108302;1277;71166;-83
2022/09/13 11:16:25;;;;;;;8.90;7.00;;;;;;;21.20;70.95;100172.15;108282;1275;71705;-83
2022/09/13 11:19:17;;;;;;;9.70;7.90;;;;;;;21.12;71.45;100173.05;108177;1277;62152;-82
2022/09/13 11:22:12;;;;;;;8.50;7.00;;;;;;;20.97;71.78;100173.27;108311;1276;60420;-83
2022/09/13 11:24:53;;;;;;;10.30;8.30;;;;;;;20.82;72.75;100173.94;108321;1276;76010;-83
2022/09/13 11:27:44;;;;;;;10.40;8.50;;;;;;;20.75;73.00;100171.02;108284;1277;72339;-83
2022/09/13 11:30:22;;;;;;;11.60;8.60;;;;;;;20.77;73.34;100167.90;108195;1277;73800;-83
2022/09/13 11:33:05;;;;;;;11.10;8.70;;;;;;;20.84;72.96;100168.08;108202;1276;62489;-83
2022/09/13 11:35:51;;;;;;;12.10;8.80;;;;;;;20.91;73.18;100162.42;108262;1277;62122;-83
2022/09/13 11:39:00;;;;;;;9.70;8.20;;;;;;;20.99;72.83;100165.13;108253;1275;73698;-83
2022/09/13 11:41:30;;;;;;;10.70;8.40;;;;;;;21.05;72.73;100156.50;108367;1276;72668;-83
2022/09/13 11:44:11;;;;;;;11.30;7.80;;;;;;;21.05;72.63;100154.67;108333;1276;74418;-83